sensor_id;sensor_type;location;lat;lon;timestamp;P1;durP1;ratioP1;P2;durP2;ratioP2
10387;SDS011;5240;51.128;4.566;2022-07-01T00:01:32;15.02;;;9.70;;
10387;SDS011;5240;51.128;4.566;2022-07-01T00:03:59;13.90;;;9.88;;
10387;SDS011;5240;51.128;4.566;2022-07-01T00:06:26;14.77;;;8.48;;
10387;SDS011;5240;51.128;4.566;2022-07-01T00:08:53;16.13;;;9.88;;
10387;SDS011;5240;51.128;4.566;2022-07-01T00:11:21;17.73;;;9.32;;
10387;SDS011;5240;51.128;4.566;2022-07-01T00:13:48;15.20;;;9.18;;
10387;SDS011;5240;51.128;4.566;2022-07-01T00:16:15;16.58;;;9.23;;
10387;SDS011;5240;51.128;4.566;2022-07-01T00:18:44;15.57;;;9.68;;
10387;SDS011;5240;51.128;4.566;2022-07-01T00:21:11;13.23;;;8.85;;
10387;SDS011;5240;51.128;4.566;2022-07-01T00:23:39;11.88;;;8.52;;
10387;SDS011;5240;51.128;4.566;2022-07-01T00:26:06;15.00;;;9.02;;
10387;SDS011;5240;51.128;4.566;2022-07-01T00:28:34;13.07;;;9.40;;
10387;SDS011;5240;51.128;4.566;2022-07-01T00:31:01;13.82;;;9.70;;
10387;SDS011;5240;51.128;4.566;2022-07-01T00:33:28;14.05;;;9.32;;
10387;SDS011;5240;51.128;4.566;2022-07-01T00:35:58;13.18;;;9.55;;
10387;SDS011;5240;51.128;4.566;2022-07-01T00:38:25;17.80;;;9.65;;
10387;SDS011;5240;51.128;4.566;2022-07-01T00:40:54;13.55;;;9.07;;
10387;SDS011;5240;51.128;4.566;2022-07-01T00:43:22;16.83;;;10.15;;
10387;SDS011;5240;51.128;4.566;2022-07-01T00:45:50;14.10;;;9.73;;
10387;SDS011;5240;51.128;4.566;2022-07-01T00:48:18;15.25;;;9.95;;
10387;SDS011;5240;51.128;4.566;2022-07-01T00:50:45;12.73;;;9.50;;
10387;SDS011;5240;51.128;4.566;2022-07-01T00:53:14;16.35;;;10.20;;
10387;SDS011;5240;51.128;4.566;2022-07-01T00:55:41;14.10;;;11.00;;
10387;SDS011;5240;51.128;4.566;2022-07-01T00:58:09;18.50;;;11.60;;
10387;SDS011;5240;51.128;4.566;2022-07-01T01:00:37;14.20;;;10.55;;
10387;SDS011;5240;51.128;4.566;2022-07-01T01:03:04;17.70;;;10.77;;
10387;SDS011;5240;51.128;4.566;2022-07-01T01:05:32;16.52;;;11.55;;
10387;SDS011;5240;51.128;4.566;2022-07-01T01:08:00;17.25;;;10.77;;
10387;SDS011;5240;51.128;4.566;2022-07-01T01:10:28;16.23;;;11.25;;
10387;SDS011;5240;51.128;4.566;2022-07-01T01:12:57;17.52;;;10.50;;
10387;SDS011;5240;51.128;4.566;2022-07-01T01:15:24;15.05;;;10.68;;
10387;SDS011;5240;51.128;4.566;2022-07-01T01:17:52;20.20;;;11.73;;
10387;SDS011;5240;51.128;4.566;2022-07-01T01:20:21;18.00;;;10.40;;
10387;SDS011;5240;51.128;4.566;2022-07-01T01:22:49;16.10;;;10.45;;
10387;SDS011;5240;51.128;4.566;2022-07-01T01:25:17;16.67;;;10.75;;
10387;SDS011;5240;51.128;4.566;2022-07-01T01:27:44;17.73;;;11.65;;
10387;SDS011;5240;51.128;4.566;2022-07-01T01:30:12;15.55;;;10.65;;
10387;SDS011;5240;51.128;4.566;2022-07-01T01:32:41;16.98;;;11.10;;
10387;SDS011;5240;51.128;4.566;2022-07-01T01:35:08;18.42;;;11.00;;
10387;SDS011;5240;51.128;4.566;2022-07-01T01:37:36;16.42;;;11.52;;
10387;SDS011;5240;51.128;4.566;2022-07-01T01:40:05;15.13;;;10.93;;
10387;SDS011;5240;51.128;4.566;2022-07-01T01:42:32;20.85;;;12.07;;
10387;SDS011;5240;51.128;4.566;2022-07-01T01:45:00;16.10;;;10.90;;
10387;SDS011;5240;51.128;4.566;2022-07-01T01:47:28;18.60;;;11.48;;
10387;SDS011;5240;51.128;4.566;2022-07-01T01:49:56;16.17;;;11.65;;
10387;SDS011;5240;51.128;4.566;2022-07-01T01:52:24;16.63;;;11.07;;
10387;SDS011;5240;51.128;4.566;2022-07-01T01:54:51;17.90;;;10.85;;
10387;SDS011;5240;51.128;4.566;2022-07-01T01:57:20;20.67;;;11.98;;
10387;SDS011;5240;51.128;4.566;2022-07-01T01:59:47;18.48;;;11.85;;
10387;SDS011;5240;51.128;4.566;2022-07-01T02:02:14;16.98;;;11.25;;
10387;SDS011;5240;51.128;4.566;2022-07-01T02:04:41;18.63;;;11.63;;
10387;SDS011;5240;51.128;4.566;2022-07-01T02:07:09;17.70;;;11.13;;
10387;SDS011;5240;51.128;4.566;2022-07-01T02:09:36;19.92;;;12.02;;
10387;SDS011;5240;51.128;4.566;2022-07-01T02:12:04;20.10;;;12.05;;
10387;SDS011;5240;51.128;4.566;2022-07-01T02:14:32;17.38;;;11.18;;
10387;SDS011;5240;51.128;4.566;2022-07-01T02:17:00;22.58;;;12.30;;
10387;SDS011;5240;51.128;4.566;2022-07-01T02:19:27;20.80;;;11.75;;
10387;SDS011;5240;51.128;4.566;2022-07-01T02:21:54;18.27;;;11.77;;
10387;SDS011;5240;51.128;4.566;2022-07-01T02:24:21;17.92;;;11.15;;
10387;SDS011;5240;51.128;4.566;2022-07-01T02:26:49;18.10;;;11.52;;
10387;SDS011;5240;51.128;4.566;2022-07-01T02:29:16;20.77;;;14.65;;
10387;SDS011;5240;51.128;4.566;2022-07-01T02:31:44;19.00;;;11.85;;
10387;SDS011;5240;51.128;4.566;2022-07-01T02:34:12;20.25;;;11.73;;
10387;SDS011;5240;51.128;4.566;2022-07-01T02:36:39;18.00;;;12.02;;
10387;SDS011;5240;51.128;4.566;2022-07-01T02:39:06;20.48;;;11.77;;
10387;SDS011;5240;51.128;4.566;2022-07-01T02:41:33;18.48;;;11.68;;
10387;SDS011;5240;51.128;4.566;2022-07-01T02:44:21;18.55;;;11.38;;
10387;SDS011;5240;51.128;4.566;2022-07-01T02:46:50;20.40;;;11.52;;
10387;SDS011;5240;51.128;4.566;2022-07-01T02:49:17;17.08;;;12.13;;
10387;SDS011;5240;51.128;4.566;2022-07-01T02:51:44;21.08;;;12.02;;
10387;SDS011;5240;51.128;4.566;2022-07-01T02:54:12;18.55;;;12.43;;
10387;SDS011;5240;51.128;4.566;2022-07-01T02:56:39;19.63;;;12.85;;
10387;SDS011;5240;51.128;4.566;2022-07-01T02:59:06;18.80;;;12.30;;
10387;SDS011;5240;51.128;4.566;2022-07-01T03:01:34;19.42;;;12.60;;
10387;SDS011;5240;51.128;4.566;2022-07-01T03:04:02;20.52;;;12.82;;
10387;SDS011;5240;51.128;4.566;2022-07-01T03:06:30;16.88;;;12.60;;
10387;SDS011;5240;51.128;4.566;2022-07-01T03:08:57;22.45;;;12.82;;
10387;SDS011;5240;51.128;4.566;2022-07-01T03:11:24;16.80;;;12.10;;
10387;SDS011;5240;51.128;4.566;2022-07-01T03:13:51;17.95;;;12.35;;
10387;SDS011;5240;51.128;4.566;2022-07-01T03:16:19;15.75;;;11.82;;
10387;SDS011;5240;51.128;4.566;2022-07-01T03:18:46;17.98;;;12.90;;
10387;SDS011;5240;51.128;4.566;2022-07-01T03:21:15;20.95;;;12.25;;
10387;SDS011;5240;51.128;4.566;2022-07-01T03:23:42;18.27;;;11.32;;
10387;SDS011;5240;51.128;4.566;2022-07-01T03:26:09;19.40;;;11.98;;
10387;SDS011;5240;51.128;4.566;2022-07-01T03:28:36;16.85;;;12.43;;
10387;SDS011;5240;51.128;4.566;2022-07-01T03:31:03;18.80;;;11.55;;
10387;SDS011;5240;51.128;4.566;2022-07-01T03:33:31;18.98;;;12.48;;
10387;SDS011;5240;51.128;4.566;2022-07-01T03:35:58;16.20;;;11.90;;
10387;SDS011;5240;51.128;4.566;2022-07-01T03:38:27;14.55;;;11.45;;
10387;SDS011;5240;51.128;4.566;2022-07-01T03:40:54;17.35;;;11.05;;
10387;SDS011;5240;51.128;4.566;2022-07-01T03:43:21;16.08;;;11.23;;
10387;SDS011;5240;51.128;4.566;2022-07-01T03:45:48;19.17;;;11.02;;
10387;SDS011;5240;51.128;4.566;2022-07-01T03:48:15;19.73;;;11.50;;
10387;SDS011;5240;51.128;4.566;2022-07-01T03:50:43;14.80;;;11.20;;
10387;SDS011;5240;51.128;4.566;2022-07-01T03:53:10;19.42;;;11.40;;
10387;SDS011;5240;51.128;4.566;2022-07-01T03:55:56;18.52;;;11.15;;
10387;SDS011;5240;51.128;4.566;2022-07-01T03:58:23;20.33;;;11.43;;
10387;SDS011;5240;51.128;4.566;2022-07-01T04:00:50;17.98;;;11.15;;
10387;SDS011;5240;51.128;4.566;2022-07-01T04:03:18;14.75;;;11.70;;
10387;SDS011;5240;51.128;4.566;2022-07-01T04:05:45;12.73;;;10.52;;
10387;SDS011;5240;51.128;4.566;2022-07-01T04:08:13;14.93;;;10.93;;
10387;SDS011;5240;51.128;4.566;2022-07-01T04:10:40;19.88;;;12.27;;
10387;SDS011;5240;51.128;4.566;2022-07-01T04:13:09;17.33;;;12.18;;
10387;SDS011;5240;51.128;4.566;2022-07-01T04:15:37;15.77;;;11.40;;
10387;SDS011;5240;51.128;4.566;2022-07-01T04:18:04;20.50;;;12.38;;
10387;SDS011;5240;51.128;4.566;2022-07-01T04:20:31;17.58;;;11.95;;
10387;SDS011;5240;51.128;4.566;2022-07-01T04:22:58;17.17;;;11.38;;
10387;SDS011;5240;51.128;4.566;2022-07-01T04:25:25;15.63;;;11.75;;
10387;SDS011;5240;51.128;4.566;2022-07-01T04:27:55;17.42;;;11.35;;
10387;SDS011;5240;51.128;4.566;2022-07-01T04:30:23;15.73;;;12.23;;
10387;SDS011;5240;51.128;4.566;2022-07-01T04:32:51;16.08;;;11.35;;
10387;SDS011;5240;51.128;4.566;2022-07-01T04:35:18;14.35;;;11.43;;
10387;SDS011;5240;51.128;4.566;2022-07-01T04:37:45;14.27;;;11.35;;
10387;SDS011;5240;51.128;4.566;2022-07-01T04:40:12;13.00;;;11.60;;
10387;SDS011;5240;51.128;4.566;2022-07-01T04:42:40;15.88;;;11.70;;
10387;SDS011;5240;51.128;4.566;2022-07-01T04:45:06;15.60;;;12.20;;
10387;SDS011;5240;51.128;4.566;2022-07-01T04:47:36;16.77;;;11.93;;
10387;SDS011;5240;51.128;4.566;2022-07-01T04:50:04;16.65;;;11.95;;
10387;SDS011;5240;51.128;4.566;2022-07-01T04:52:32;19.40;;;12.98;;
10387;SDS011;5240;51.128;4.566;2022-07-01T04:54:59;18.90;;;12.38;;
10387;SDS011;5240;51.128;4.566;2022-07-01T04:57:26;13.73;;;11.35;;
10387;SDS011;5240;51.128;4.566;2022-07-01T04:59:55;16.77;;;12.48;;
10387;SDS011;5240;51.128;4.566;2022-07-01T05:02:22;16.27;;;12.57;;
10387;SDS011;5240;51.128;4.566;2022-07-01T05:04:51;15.85;;;12.23;;
10387;SDS011;5240;51.128;4.566;2022-07-01T05:07:19;17.92;;;13.15;;
10387;SDS011;5240;51.128;4.566;2022-07-01T05:09:56;16.70;;;13.25;;
10387;SDS011;5240;51.128;4.566;2022-07-01T05:12:24;15.15;;;13.00;;
10387;SDS011;5240;51.128;4.566;2022-07-01T05:14:51;13.85;;;11.82;;
10387;SDS011;5240;51.128;4.566;2022-07-01T05:17:18;16.38;;;12.73;;
10387;SDS011;5240;51.128;4.566;2022-07-01T05:20:07;16.75;;;12.95;;
10387;SDS011;5240;51.128;4.566;2022-07-01T05:22:52;16.13;;;12.45;;
10387;SDS011;5240;51.128;4.566;2022-07-01T05:25:19;15.88;;;12.05;;
10387;SDS011;5240;51.128;4.566;2022-07-01T05:27:47;15.65;;;13.10;;
10387;SDS011;5240;51.128;4.566;2022-07-01T05:30:14;16.60;;;12.63;;
10387;SDS011;5240;51.128;4.566;2022-07-01T05:32:41;18.02;;;12.60;;
10387;SDS011;5240;51.128;4.566;2022-07-01T05:35:10;18.20;;;11.55;;
10387;SDS011;5240;51.128;4.566;2022-07-01T05:37:37;13.30;;;11.70;;
10387;SDS011;5240;51.128;4.566;2022-07-01T05:40:05;15.18;;;12.52;;
10387;SDS011;5240;51.128;4.566;2022-07-01T05:42:33;16.02;;;11.82;;
10387;SDS011;5240;51.128;4.566;2022-07-01T05:45:00;14.07;;;11.43;;
10387;SDS011;5240;51.128;4.566;2022-07-01T05:47:27;16.80;;;11.88;;
10387;SDS011;5240;51.128;4.566;2022-07-01T05:49:55;17.90;;;12.15;;
10387;SDS011;5240;51.128;4.566;2022-07-01T05:52:23;14.05;;;10.60;;
10387;SDS011;5240;51.128;4.566;2022-07-01T05:54:51;18.50;;;10.93;;
10387;SDS011;5240;51.128;4.566;2022-07-01T05:57:18;14.20;;;10.80;;
10387;SDS011;5240;51.128;4.566;2022-07-01T05:59:45;18.90;;;11.20;;
10387;SDS011;5240;51.128;4.566;2022-07-01T06:02:12;14.70;;;10.70;;
10387;SDS011;5240;51.128;4.566;2022-07-01T06:04:39;15.70;;;10.43;;
10387;SDS011;5240;51.128;4.566;2022-07-01T06:07:08;14.90;;;9.85;;
10387;SDS011;5240;51.128;4.566;2022-07-01T06:09:37;11.10;;;9.85;;
10387;SDS011;5240;51.128;4.566;2022-07-01T06:12:05;12.48;;;8.73;;
10387;SDS011;5240;51.128;4.566;2022-07-01T06:14:32;16.98;;;8.85;;
10387;SDS011;5240;51.128;4.566;2022-07-01T06:17:00;13.82;;;8.30;;
10387;SDS011;5240;51.128;4.566;2022-07-01T06:19:27;9.18;;;7.18;;
10387;SDS011;5240;51.128;4.566;2022-07-01T06:21:54;12.48;;;7.10;;
10387;SDS011;5240;51.128;4.566;2022-07-01T06:24:22;11.93;;;7.30;;
10387;SDS011;5240;51.128;4.566;2022-07-01T06:26:51;10.90;;;7.47;;
10387;SDS011;5240;51.128;4.566;2022-07-01T06:29:18;8.82;;;6.30;;
10387;SDS011;5240;51.128;4.566;2022-07-01T06:31:45;8.38;;;6.07;;
10387;SDS011;5240;51.128;4.566;2022-07-01T06:34:13;10.98;;;6.07;;
10387;SDS011;5240;51.128;4.566;2022-07-01T06:36:40;11.15;;;5.75;;
10387;SDS011;5240;51.128;4.566;2022-07-01T06:39:07;7.68;;;6.03;;
10387;SDS011;5240;51.128;4.566;2022-07-01T06:41:34;11.35;;;5.35;;
10387;SDS011;5240;51.128;4.566;2022-07-01T06:44:03;10.75;;;5.30;;
10387;SDS011;5240;51.128;4.566;2022-07-01T06:46:31;13.00;;;5.40;;
10387;SDS011;5240;51.128;4.566;2022-07-01T06:48:59;8.30;;;4.93;;
10387;SDS011;5240;51.128;4.566;2022-07-01T06:51:26;6.90;;;4.75;;
10387;SDS011;5240;51.128;4.566;2022-07-01T06:53:53;9.23;;;4.70;;
10387;SDS011;5240;51.128;4.566;2022-07-01T06:56:21;7.97;;;4.38;;
10387;SDS011;5240;51.128;4.566;2022-07-01T06:58:48;9.25;;;4.03;;
10387;SDS011;5240;51.128;4.566;2022-07-01T07:01:17;6.82;;;3.75;;
10387;SDS011;5240;51.128;4.566;2022-07-01T07:03:44;7.93;;;4.35;;
10387;SDS011;5240;51.128;4.566;2022-07-01T07:06:11;8.70;;;3.78;;
10387;SDS011;5240;51.128;4.566;2022-07-01T07:08:39;7.20;;;3.40;;
10387;SDS011;5240;51.128;4.566;2022-07-01T07:11:06;9.65;;;3.00;;
10387;SDS011;5240;51.128;4.566;2022-07-01T07:13:34;4.68;;;2.92;;
10387;SDS011;5240;51.128;4.566;2022-07-01T07:16:01;6.45;;;2.90;;
10387;SDS011;5240;51.128;4.566;2022-07-01T07:18:29;4.85;;;3.15;;
10387;SDS011;5240;51.128;4.566;2022-07-01T07:20:57;4.43;;;2.53;;
10387;SDS011;5240;51.128;4.566;2022-07-01T07:23:24;4.43;;;2.58;;
10387;SDS011;5240;51.128;4.566;2022-07-01T07:25:51;6.15;;;2.80;;
10387;SDS011;5240;51.128;4.566;2022-07-01T07:28:18;7.10;;;2.72;;
10387;SDS011;5240;51.128;4.566;2022-07-01T07:30:46;8.18;;;2.78;;
10387;SDS011;5240;51.128;4.566;2022-07-01T07:33:13;6.40;;;2.55;;
10387;SDS011;5240;51.128;4.566;2022-07-01T07:35:42;7.28;;;2.58;;
10387;SDS011;5240;51.128;4.566;2022-07-01T07:38:09;6.78;;;2.35;;
10387;SDS011;5240;51.128;4.566;2022-07-01T07:40:36;5.28;;;2.38;;
10387;SDS011;5240;51.128;4.566;2022-07-01T07:43:04;4.60;;;2.42;;
10387;SDS011;5240;51.128;4.566;2022-07-01T07:45:32;5.32;;;2.30;;
10387;SDS011;5240;51.128;4.566;2022-07-01T07:47:59;6.80;;;1.98;;
10387;SDS011;5240;51.128;4.566;2022-07-01T07:50:27;7.30;;;2.33;;
10387;SDS011;5240;51.128;4.566;2022-07-01T07:52:56;6.07;;;2.03;;
10387;SDS011;5240;51.128;4.566;2022-07-01T07:55:23;5.60;;;1.90;;
10387;SDS011;5240;51.128;4.566;2022-07-01T07:57:50;5.13;;;2.05;;
10387;SDS011;5240;51.128;4.566;2022-07-01T08:00:18;3.80;;;1.80;;
10387;SDS011;5240;51.128;4.566;2022-07-01T08:02:45;3.67;;;1.63;;
10387;SDS011;5240;51.128;4.566;2022-07-01T08:05:12;7.75;;;2.00;;
10387;SDS011;5240;51.128;4.566;2022-07-01T08:07:40;4.20;;;1.98;;
10387;SDS011;5240;51.128;4.566;2022-07-01T08:10:11;5.53;;;2.25;;
10387;SDS011;5240;51.128;4.566;2022-07-01T08:12:39;5.35;;;1.70;;
10387;SDS011;5240;51.128;4.566;2022-07-01T08:15:07;4.68;;;2.08;;
10387;SDS011;5240;51.128;4.566;2022-07-01T08:17:34;4.18;;;1.65;;
10387;SDS011;5240;51.128;4.566;2022-07-01T08:20:02;6.72;;;2.13;;
10387;SDS011;5240;51.128;4.566;2022-07-01T08:22:29;6.60;;;2.03;;
10387;SDS011;5240;51.128;4.566;2022-07-01T08:24:56;5.72;;;1.70;;
10387;SDS011;5240;51.128;4.566;2022-07-01T08:27:25;9.82;;;2.33;;
10387;SDS011;5240;51.128;4.566;2022-07-01T08:29:52;4.70;;;1.77;;
10387;SDS011;5240;51.128;4.566;2022-07-01T08:32:20;5.72;;;1.70;;
10387;SDS011;5240;51.128;4.566;2022-07-01T08:34:49;7.75;;;1.80;;
10387;SDS011;5240;51.128;4.566;2022-07-01T08:37:16;5.78;;;1.90;;
10387;SDS011;5240;51.128;4.566;2022-07-01T08:39:44;4.00;;;1.70;;
10387;SDS011;5240;51.128;4.566;2022-07-01T08:42:19;5.38;;;1.80;;
10387;SDS011;5240;51.128;4.566;2022-07-01T08:44:47;4.38;;;1.80;;
10387;SDS011;5240;51.128;4.566;2022-07-01T08:47:15;7.75;;;1.65;;
10387;SDS011;5240;51.128;4.566;2022-07-01T08:49:42;5.18;;;1.73;;
10387;SDS011;5240;51.128;4.566;2022-07-01T08:52:10;4.50;;;1.65;;
10387;SDS011;5240;51.128;4.566;2022-07-01T08:54:37;2.90;;;1.50;;
10387;SDS011;5240;51.128;4.566;2022-07-01T08:57:06;4.57;;;1.90;;
10387;SDS011;5240;51.128;4.566;2022-07-01T09:02:51;4.43;;;2.08;;
10387;SDS011;5240;51.128;4.566;2022-07-01T09:05:19;4.45;;;1.77;;
10387;SDS011;5240;51.128;4.566;2022-07-01T09:07:54;5.05;;;1.67;;
10387;SDS011;5240;51.128;4.566;2022-07-01T09:10:23;7.47;;;2.22;;
10387;SDS011;5240;51.128;4.566;2022-07-01T09:12:50;4.53;;;1.75;;
10387;SDS011;5240;51.128;4.566;2022-07-01T09:15:21;2.58;;;1.60;;
10387;SDS011;5240;51.128;4.566;2022-07-01T09:17:53;5.90;;;1.80;;
10387;SDS011;5240;51.128;4.566;2022-07-01T09:20:24;4.05;;;1.60;;
10387;SDS011;5240;51.128;4.566;2022-07-01T09:25:41;6.88;;;2.08;;
10387;SDS011;5240;51.128;4.566;2022-07-01T09:28:10;4.78;;;1.70;;
10387;SDS011;5240;51.128;4.566;2022-07-01T09:30:38;4.75;;;1.60;;
10387;SDS011;5240;51.128;4.566;2022-07-01T09:33:15;6.70;;;1.85;;
10387;SDS011;5240;51.128;4.566;2022-07-01T09:35:43;4.10;;;1.70;;
10387;SDS011;5240;51.128;4.566;2022-07-01T09:38:12;6.93;;;1.92;;
10387;SDS011;5240;51.128;4.566;2022-07-01T09:40:46;3.83;;;1.70;;
10387;SDS011;5240;51.128;4.566;2022-07-01T09:43:14;6.38;;;1.73;;
10387;SDS011;5240;51.128;4.566;2022-07-01T09:45:48;2.47;;;1.80;;
10387;SDS011;5240;51.128;4.566;2022-07-01T09:48:17;4.38;;;1.70;;
10387;SDS011;5240;51.128;4.566;2022-07-01T09:50:44;4.07;;;1.70;;
10387;SDS011;5240;51.128;4.566;2022-07-01T09:53:12;4.35;;;1.65;;
10387;SDS011;5240;51.128;4.566;2022-07-01T09:55:39;4.50;;;1.50;;
10387;SDS011;5240;51.128;4.566;2022-07-01T09:58:07;7.30;;;1.75;;
10387;SDS011;5240;51.128;4.566;2022-07-01T10:00:35;2.67;;;1.50;;
10387;SDS011;5240;51.128;4.566;2022-07-01T10:03:02;5.43;;;1.73;;
10387;SDS011;5240;51.128;4.566;2022-07-01T10:05:33;5.68;;;1.70;;
10387;SDS011;5240;51.128;4.566;2022-07-01T10:08:05;7.15;;;2.03;;
10387;SDS011;5240;51.128;4.566;2022-07-01T10:10:41;2.88;;;1.65;;
10387;SDS011;5240;51.128;4.566;2022-07-01T10:13:11;3.42;;;1.60;;
10387;SDS011;5240;51.128;4.566;2022-07-01T10:15:40;4.63;;;1.70;;
10387;SDS011;5240;51.128;4.566;2022-07-01T10:18:18;3.05;;;1.30;;
10387;SDS011;5240;51.128;4.566;2022-07-01T10:20:48;5.95;;;1.50;;
10387;SDS011;5240;51.128;4.566;2022-07-01T10:23:15;5.25;;;1.70;;
10387;SDS011;5240;51.128;4.566;2022-07-01T10:25:43;4.88;;;1.70;;
10387;SDS011;5240;51.128;4.566;2022-07-01T10:28:15;4.57;;;1.50;;
10387;SDS011;5240;51.128;4.566;2022-07-01T10:30:59;5.22;;;1.75;;
10387;SDS011;5240;51.128;4.566;2022-07-01T10:33:28;3.60;;;1.60;;
10387;SDS011;5240;51.128;4.566;2022-07-01T10:35:57;4.22;;;1.60;;
10387;SDS011;5240;51.128;4.566;2022-07-01T10:38:30;5.53;;;1.30;;
10387;SDS011;5240;51.128;4.566;2022-07-01T10:40:57;4.18;;;1.50;;
10387;SDS011;5240;51.128;4.566;2022-07-01T10:43:34;4.00;;;1.30;;
10387;SDS011;5240;51.128;4.566;2022-07-01T10:46:02;4.72;;;1.50;;
10387;SDS011;5240;51.128;4.566;2022-07-01T10:48:31;2.80;;;1.30;;
10387;SDS011;5240;51.128;4.566;2022-07-01T10:51:00;3.15;;;1.33;;
10387;SDS011;5240;51.128;4.566;2022-07-01T10:53:30;2.70;;;1.40;;
10387;SDS011;5240;51.128;4.566;2022-07-01T10:56:14;4.18;;;1.45;;
10387;SDS011;5240;51.128;4.566;2022-07-01T10:58:42;3.67;;;1.80;;
10387;SDS011;5240;51.128;4.566;2022-07-01T11:01:09;3.90;;;1.40;;
10387;SDS011;5240;51.128;4.566;2022-07-01T11:03:37;3.78;;;1.70;;
10387;SDS011;5240;51.128;4.566;2022-07-01T11:06:06;4.63;;;1.60;;
10387;SDS011;5240;51.128;4.566;2022-07-01T11:08:34;4.90;;;1.50;;
10387;SDS011;5240;51.128;4.566;2022-07-01T11:11:02;2.33;;;1.35;;
10387;SDS011;5240;51.128;4.566;2022-07-01T11:13:30;3.40;;;1.60;;
10387;SDS011;5240;51.128;4.566;2022-07-01T11:15:58;2.75;;;1.33;;
10387;SDS011;5240;51.128;4.566;2022-07-01T11:18:26;2.83;;;1.42;;
10387;SDS011;5240;51.128;4.566;2022-07-01T11:21:01;3.55;;;1.52;;
10387;SDS011;5240;51.128;4.566;2022-07-01T11:23:30;3.08;;;1.70;;
10387;SDS011;5240;51.128;4.566;2022-07-01T11:25:57;4.05;;;1.60;;
10387;SDS011;5240;51.128;4.566;2022-07-01T11:28:25;3.20;;;1.20;;
10387;SDS011;5240;51.128;4.566;2022-07-01T11:30:57;2.17;;;1.20;;
10387;SDS011;5240;51.128;4.566;2022-07-01T11:33:25;2.40;;;1.20;;
10387;SDS011;5240;51.128;4.566;2022-07-01T11:35:52;6.45;;;1.30;;
10387;SDS011;5240;51.128;4.566;2022-07-01T11:38:38;3.45;;;1.65;;
10387;SDS011;5240;51.128;4.566;2022-07-01T11:41:23;2.78;;;1.58;;
10387;SDS011;5240;51.128;4.566;2022-07-01T11:43:51;3.05;;;1.48;;
10387;SDS011;5240;51.128;4.566;2022-07-01T11:46:19;2.67;;;1.20;;
10387;SDS011;5240;51.128;4.566;2022-07-01T11:48:47;2.83;;;1.40;;
10387;SDS011;5240;51.128;4.566;2022-07-01T11:51:16;2.95;;;1.23;;
10387;SDS011;5240;51.128;4.566;2022-07-01T11:53:45;3.75;;;1.42;;
10387;SDS011;5240;51.128;4.566;2022-07-01T11:56:14;3.25;;;1.30;;
10387;SDS011;5240;51.128;4.566;2022-07-01T11:58:45;1.58;;;1.20;;
10387;SDS011;5240;51.128;4.566;2022-07-01T12:01:19;2.60;;;1.15;;
10387;SDS011;5240;51.128;4.566;2022-07-01T12:03:47;2.65;;;1.25;;
10387;SDS011;5240;51.128;4.566;2022-07-01T12:06:14;4.28;;;1.40;;
10387;SDS011;5240;51.128;4.566;2022-07-01T12:08:45;2.92;;;1.10;;
10387;SDS011;5240;51.128;4.566;2022-07-01T12:11:12;4.05;;;1.20;;
10387;SDS011;5240;51.128;4.566;2022-07-01T12:13:40;4.97;;;1.42;;
10387;SDS011;5240;51.128;4.566;2022-07-01T12:16:07;4.05;;;1.20;;
10387;SDS011;5240;51.128;4.566;2022-07-01T12:18:35;1.67;;;1.08;;
10387;SDS011;5240;51.128;4.566;2022-07-01T12:21:02;4.15;;;1.27;;
10387;SDS011;5240;51.128;4.566;2022-07-01T12:23:30;1.75;;;0.93;;
10387;SDS011;5240;51.128;4.566;2022-07-01T12:26:03;8.48;;;1.50;;
10387;SDS011;5240;51.128;4.566;2022-07-01T12:28:37;2.05;;;1.23;;
10387;SDS011;5240;51.128;4.566;2022-07-01T12:31:06;2.67;;;1.20;;
10387;SDS011;5240;51.128;4.566;2022-07-01T12:33:34;3.95;;;1.25;;
10387;SDS011;5240;51.128;4.566;2022-07-01T12:36:02;4.60;;;1.40;;
10387;SDS011;5240;51.128;4.566;2022-07-01T12:38:29;1.30;;;0.95;;
10387;SDS011;5240;51.128;4.566;2022-07-01T12:40:57;3.35;;;1.30;;
10387;SDS011;5240;51.128;4.566;2022-07-01T12:43:29;2.33;;;1.20;;
10387;SDS011;5240;51.128;4.566;2022-07-01T12:45:57;2.15;;;0.98;;
10387;SDS011;5240;51.128;4.566;2022-07-01T12:48:25;3.42;;;1.20;;
10387;SDS011;5240;51.128;4.566;2022-07-01T12:50:53;3.33;;;1.20;;
10387;SDS011;5240;51.128;4.566;2022-07-01T12:53:21;18.17;;;3.15;;
10387;SDS011;5240;51.128;4.566;2022-07-01T12:55:49;2.72;;;1.08;;
10387;SDS011;5240;51.128;4.566;2022-07-01T12:58:19;1.98;;;1.20;;
10387;SDS011;5240;51.128;4.566;2022-07-01T13:00:48;2.75;;;1.52;;
10387;SDS011;5240;51.128;4.566;2022-07-01T13:03:17;5.43;;;1.30;;
10387;SDS011;5240;51.128;4.566;2022-07-01T13:05:45;2.50;;;1.08;;
10387;SDS011;5240;51.128;4.566;2022-07-01T13:08:12;4.38;;;1.25;;
10387;SDS011;5240;51.128;4.566;2022-07-01T13:10:40;2.33;;;1.17;;
10387;SDS011;5240;51.128;4.566;2022-07-01T13:13:11;1.98;;;1.05;;
10387;SDS011;5240;51.128;4.566;2022-07-01T13:15:38;3.03;;;1.40;;
10387;SDS011;5240;51.128;4.566;2022-07-01T13:18:07;2.20;;;1.27;;
10387;SDS011;5240;51.128;4.566;2022-07-01T13:20:34;3.85;;;1.20;;
10387;SDS011;5240;51.128;4.566;2022-07-01T13:23:03;2.28;;;1.05;;
10387;SDS011;5240;51.128;4.566;2022-07-01T13:25:31;4.65;;;1.30;;
10387;SDS011;5240;51.128;4.566;2022-07-01T13:27:58;1.45;;;1.13;;
10387;SDS011;5240;51.128;4.566;2022-07-01T13:30:26;5.07;;;1.40;;
10387;SDS011;5240;51.128;4.566;2022-07-01T13:32:53;6.30;;;1.40;;
10387;SDS011;5240;51.128;4.566;2022-07-01T13:35:22;3.67;;;1.23;;
10387;SDS011;5240;51.128;4.566;2022-07-01T13:37:49;12.68;;;1.63;;
10387;SDS011;5240;51.128;4.566;2022-07-01T13:40:17;9.35;;;2.10;;
10387;SDS011;5240;51.128;4.566;2022-07-01T13:42:44;8.80;;;2.10;;
10387;SDS011;5240;51.128;4.566;2022-07-01T13:45:11;5.80;;;1.45;;
10387;SDS011;5240;51.128;4.566;2022-07-01T13:47:39;5.28;;;1.45;;
10387;SDS011;5240;51.128;4.566;2022-07-01T13:50:07;6.93;;;1.65;;
10387;SDS011;5240;51.128;4.566;2022-07-01T13:52:36;5.50;;;1.77;;
10387;SDS011;5240;51.128;4.566;2022-07-01T13:55:04;5.95;;;1.95;;
10387;SDS011;5240;51.128;4.566;2022-07-01T13:57:31;6.38;;;2.00;;
10387;SDS011;5240;51.128;4.566;2022-07-01T13:59:59;7.60;;;2.00;;
10387;SDS011;5240;51.128;4.566;2022-07-01T14:02:26;4.25;;;1.95;;
10387;SDS011;5240;51.128;4.566;2022-07-01T14:04:53;11.82;;;2.28;;
10387;SDS011;5240;51.128;4.566;2022-07-01T14:07:20;2.65;;;1.60;;
10387;SDS011;5240;51.128;4.566;2022-07-01T14:09:49;11.35;;;2.53;;
10387;SDS011;5240;51.128;4.566;2022-07-01T14:12:16;8.73;;;1.90;;
10387;SDS011;5240;51.128;4.566;2022-07-01T14:14:43;5.75;;;1.77;;
10387;SDS011;5240;51.128;4.566;2022-07-01T14:17:12;7.60;;;1.90;;
10387;SDS011;5240;51.128;4.566;2022-07-01T14:19:40;7.07;;;2.13;;
10387;SDS011;5240;51.128;4.566;2022-07-01T14:22:07;8.85;;;2.10;;
10387;SDS011;5240;51.128;4.566;2022-07-01T14:24:34;2.95;;;1.60;;
10387;SDS011;5240;51.128;4.566;2022-07-01T14:27:03;6.93;;;2.08;;
10387;SDS011;5240;51.128;4.566;2022-07-01T14:29:31;9.00;;;2.08;;
10387;SDS011;5240;51.128;4.566;2022-07-01T14:31:58;5.78;;;1.60;;
10387;SDS011;5240;51.128;4.566;2022-07-01T14:34:25;6.30;;;1.50;;
10387;SDS011;5240;51.128;4.566;2022-07-01T14:36:53;5.70;;;1.85;;
10387;SDS011;5240;51.128;4.566;2022-07-01T14:39:20;4.25;;;1.55;;
10387;SDS011;5240;51.128;4.566;2022-07-01T14:41:48;6.95;;;2.03;;
10387;SDS011;5240;51.128;4.566;2022-07-01T14:44:17;7.43;;;1.90;;
10387;SDS011;5240;51.128;4.566;2022-07-01T14:46:44;3.28;;;1.55;;
10387;SDS011;5240;51.128;4.566;2022-07-01T14:49:11;3.47;;;1.83;;
10387;SDS011;5240;51.128;4.566;2022-07-01T14:51:42;3.83;;;1.58;;
10387;SDS011;5240;51.128;4.566;2022-07-01T14:54:09;6.93;;;2.17;;
10387;SDS011;5240;51.128;4.566;2022-07-01T14:56:37;4.45;;;1.58;;
10387;SDS011;5240;51.128;4.566;2022-07-01T14:59:05;4.45;;;2.00;;
10387;SDS011;5240;51.128;4.566;2022-07-01T15:01:34;4.20;;;1.67;;
10387;SDS011;5240;51.128;4.566;2022-07-01T15:04:02;4.95;;;1.52;;